Time;durP1;ratioP1;P1;durP2;ratioP2;P2;SDS_P1;SDS_P2;PMS_P1;PMS_P2;Temp;Humidity;BMP_temperature;BMP_pressure;BME280_temperature;BME280_humidity;BME280_pressure;Samples;Min_cycle;Max_cycle;Signal;HPM_P1;HPM_P2
2024/04/14 00:04:14;;;;;;;7.50;6.10;;;;;;;11.35;78.87;99648.11;449544;1233;139813;-53
2024/04/14 00:14:18;;;;;;;7.50;5.40;;;;;;;11.27;79.09;99636.54;449386;1235;139247;-53
2024/04/14 00:24:24;;;;;;;6.10;5.50;;;;;;;11.18;79.54;99625.37;449050;1234;139561;-55
2024/04/14 00:34:27;;;;;;;6.30;5.70;;;;;;;11.13;80.04;99617.52;449837;1233;138889;-53
2024/04/14 00:44:31;;;;;;;5.20;4.70;;;;;;;11.11;80.29;99602.59;449256;1237;138833;-53
2024/04/14 00:54:35;;;;;;;5.90;5.30;;;;;;;11.08;80.62;99582.95;448182;1237;139508;-52
2024/04/14 01:04:39;;;;;;;8.60;5.10;;;;;;;11.08;81.02;99573.48;449190;1237;139533;-58
2024/04/14 01:14:45;;;;;;;7.10;5.50;;;;;;;11.11;81.29;99556.52;449046;1237;138872;-58
2024/04/14 01:24:50;;;;;;;7.10;5.30;;;;;;;11.09;81.31;99548.91;450273;1233;138856;-51
2024/04/14 01:34:53;;;;;;;8.60;5.60;;;;;;;11.04;81.27;99539.42;446987;1234;5110897;-54
2024/04/14 01:44:59;;;;;;;6.80;5.70;;;;;;;10.91;81.28;99529.42;449494;1233;139398;-58
2024/04/14 01:55:02;;;;;;;5.70;5.10;;;;;;;10.75;81.67;99513.99;449253;1238;138914;-58
2024/04/14 02:05:07;;;;;;;6.70;6.00;;;;;;;10.64;82.08;99498.63;449757;1237;139920;-53
2024/04/14 04:37:52;;;;;;;7.50;6.60;;;;;;;11.59;87.66;99302.89;449422;1233;139675;-58
2024/04/14 04:47:58;;;;;;;10.70;8.00;;;;;;;11.94;87.00;99297.27;449098;1237;139315;-57
2024/04/14 04:58:01;;;;;;;8.20;6.70;;;;;;;12.30;86.34;99292.30;448856;1238;139643;-57
2024/04/14 05:08:07;;;;;;;7.90;7.20;;;;;;;12.85;85.69;99280.56;449168;1237;138909;-52
2024/04/14 05:18:12;;;;;;;6.80;5.30;;;;;;;13.47;84.29;99275.45;449960;1238;139544;-52
2024/04/14 05:28:15;;;;;;;5.90;5.00;;;;;;;14.46;83.12;99268.89;449766;1238;139968;-53
2024/04/14 05:38:21;;;;;;;4.70;4.30;;;;;;;15.77;80.22;99269.52;450075;1237;138918;-55
2024/04/14 05:48:25;;;;;;;5.30;4.30;;;;;;;17.31;77.10;99255.34;449488;1238;139088;-55
2024/04/14 05:58:29;;;;;;;6.30;4.20;;;;;;;19.48;72.68;99246.52;449122;1238;139395;-56
2024/04/14 06:08:32;;;;;;;5.30;4.80;;;;;;;21.19;67.50;99234.42;448627;1239;139087;-55
2024/04/14 06:18:35;;;;;;;3.80;3.40;;;;;;;21.91;62.77;99230.16;448984;1235;138777;-56
2024/04/14 06:28:38;;;;;;;4.40;3.80;;;;;;;23.03;60.02;99220.47;448751;1236;139096;-57
2024/04/14 06:38:44;;;;;;;4.90;3.10;;;;;;;24.60;56.76;99221.24;449129;1237;138287;-55
2024/04/14 06:48:47;;;;;;;4.30;3.40;;;;;;;25.56;53.37;99208.42;450091;1238;138311;-56
2024/04/14 06:58:50;;;;;;;3.30;2.90;;;;;;;26.51;50.17;99191.05;450077;1234;138515;-56
2024/04/14 07:08:54;;;;;;;4.90;4.10;;;;;;;27.03;48.12;99193.56;449564;1238;138303;-56
2024/04/14 07:18:57;;;;;;;2.80;2.60;;;;;;;27.27;46.10;99186.02;450045;1234;138726;-55
2024/04/14 07:29:01;;;;;;;4.60;2.80;;;;;;;26.81;45.65;99188.20;449298;1235;138734;-65
2024/04/14 07:39:04;;;;;;;5.70;2.80;;;;;;;27.25;44.90;99191.89;448937;1233;138622;-66
2024/04/14 07:49:08;;;;;;;2.20;2.00;;;;;;;27.33;44.18;99193.42;450497;1235;139130;-74
2024/04/14 07:59:11;;;;;;;3.60;2.50;;;;;;;28.85;43.36;99186.45;450186;1237;138841;-71
2024/04/14 08:09:15;;;;;;;11.10;3.10;;;;;;;31.23;40.84;99187.67;449127;1237;138535;-67
2024/04/14 08:19:20;;;;;;;2.80;2.50;;;;;;;30.68;38.73;99190.66;449995;1237;138504;-56
2024/04/14 08:29:25;;;;;;;4.80;2.90;;;;;;;29.31;39.22;99188.09;448716;1237;138633;-58
2024/04/14 08:39:29;;;;;;;2.40;2.20;;;;;;;28.35;39.59;99186.04;449493;1233;138145;-58
2024/04/14 08:49:37;;;;;;;3.20;2.30;;;;;;;27.87;40.69;99181.31;451056;1238;138352;-59
2024/04/14 08:59:43;;;;;;;3.90;2.50;;;;;;;27.56;40.92;99188.02;449770;1238;138585;-65
2024/04/14 09:09:49;;;;;;;9.00;3.00;;;;;;;27.36;41.75;99174.08;449962;1237;138523;-66
2024/04/14 09:19:52;;;;;;;9.70;3.90;;;;;;;27.50;41.75;99170.20;449756;1237;139093;-65
2024/04/14 09:29:56;;;;;;;7.90;4.00;;;;;;;26.90;41.67;99185.02;448282;1237;138666;-61
2024/04/14 09:40:01;;;;;;;5.70;3.40;;;;;;;26.36;42.46;99186.23;450152;1237;138256;-57
2024/04/14 09:50:07;;;;;;;8.40;3.50;;;;;;;26.15;43.07;99192.34;450437;1237;138422;-57
2024/04/14 10:00:12;;;;;;;6.80;4.50;;;;;;;25.81;43.23;99194.61;451482;1237;138780;-63
2024/04/14 10:10:16;;;;;;;12.20;4.00;;;;;;;25.06;43.46;99201.77;450266;1238;139247;-63
2024/04/14 10:20:19;;;;;;;5.00;3.10;;;;;;;24.37;43.60;99209.29;449388;1238;139164;-62
2024/04/14 10:30:24;;;;;;;5.10;2.40;;;;;;;24.10;44.11;99215.71;449838;1237;139349;-61
2024/04/14 10:40:29;;;;;;;10.00;3.70;;;;;;;24.27;43.82;99204.36;449346;1235;138769;-61
2024/04/14 10:50:32;;;;;;;6.80;2.60;;;;;;;24.47;43.00;99207.56;449230;1237;138728;-62
2024/04/14 11:00:35;;;;;;;9.40;3.30;;;;;;;24.53;42.48;99212.14;449024;1237;138620;-63
2024/04/14 11:10:40;;;;;;;10.10;3.60;;;;;;;23.70;42.40;99224.39;449438;1237;138753;-62
2024/04/14 11:20:49;;;;;;;4.90;3.50;;;;;;;22.36;43.67;99235.21;449711;1235;140020;-64
2024/04/14 11:30:52;;;;;;;6.00;2.70;;;;;;;21.13;46.01;99256.70;449936;1237;138028;-61
2024/04/14 11:40:56;;;;;;;7.10;2.80;;;;;;;20.14;47.98;99269.25;450346;1237;138177;-62
2024/04/14 11:50:59;;;;;;;9.10;2.80;;;;;;;19.39;48.25;99273.08;450538;1237;138274;-54
2024/04/14 12:01:04;;;;;;;23.70;5.20;;;;;;;18.91;49.00;99280.06;449946;1236;138787;-56
2024/04/14 12:11:07;;;;;;;35.60;9.00;;;;;;;18.72;49.71;99275.20;450911;1235;139598;-63
2024/04/14 12:21:10;;;;;;;10.40;3.10;;;;;;;18.80;49.85;99267.88;449093;1237;139998;-63
2024/04/14 12:31:14;;;;;;;12.70;2.80;;;;;;;19.27;49.60;99270.66;450280;1235;138519;-80
2024/04/14 12:41:20;;;;;;;2.70;1.40;;;;;;;19.76;48.74;99254.88;462875;1233;138454;-60
2024/04/14 12:51:25;;;;;;;5.20;1.90;;;;;;;19.94;48.58;99246.02;463054;1235;138609;-61
2024/04/14 13:01:28;;;;;;;4.30;1.80;;;;;;;19.96;48.47;99240.31;462815;1234;139328;-61
2024/04/14 13:11:31;;;;;;;9.10;2.40;;;;;;;20.02;48.18;99229.12;462807;1235;138547;-61
2024/04/14 13:21:38;;;;;;;4.50;2.10;;;;;;;20.16;47.87;99215.76;462932;1235;138713;-67
2024/04/14 13:31:41;;;;;;;5.90;1.20;;;;;;;20.39;47.60;99210.20;449855;1236;5099251;-65
2024/04/14 13:41:45;;;;;;;5.90;1.20;;;;;;;20.68;46.78;99199.82;462700;1235;138814;-69
2024/04/14 13:51:49;;;;;;;4.30;1.50;;;;;;;20.79;46.48;99212.48;462751;1233;139076;-67
2024/04/14 14:01:57;;;;;;;1.30;1.20;;;;;;;20.57;46.76;99212.64;453708;1237;138342;-71
2024/04/14 14:12:01;;;;;;;4.30;1.50;;;;;;;20.40;46.99;99198.16;449807;1237;138964;-62
2024/04/14 14:22:05;;;;;;;2.00;1.70;;;;;;;20.25;46.65;99193.71;449865;1237;138767;-66
2024/04/14 14:32:11;;;;;;;3.30;1.10;;;;;;;20.12;47.10;99189.52;462808;1233;138009;-66
2024/04/14 14:42:14;;;;;;;5.10;1.40;;;;;;;20.47;46.59;99186.67;458996;1235;139183;-68
2024/04/14 14:52:18;;;;;;;3.30;1.70;;;;;;;20.72;45.38;99182.16;449608;1237;139053;-68
2024/04/14 15:02:22;;;;;;;4.30;1.10;;;;;;;20.67;44.48;99195.52;450754;1233;138559;-67
2024/04/14 15:12:26;;;;;;;35.90;3.70;;;;;;;20.35;44.06;99198.34;449763;1237;139289;-66
2024/04/14 15:22:30;;;;;;;3.20;0.70;;;;;;;20.05;43.65;99205.35;450011;1237;139311;-66
2024/04/14 15:32:36;;;;;;;3.00;1.10;;;;;;;19.79;43.57;99230.04;451111;1235;138842;-66
2024/04/14 15:42:41;;;;;;;6.50;1.40;;;;;;;19.11;43.52;99234.91;450427;1234;138790;-61
2024/04/14 15:52:45;;;;;;;4.50;1.40;;;;;;;18.58;44.03;99241.96;450695;1236;139111;-62
2024/04/14 16:02:49;;;;;;;3.30;0.90;;;;;;;18.17;44.49;99249.60;450927;1236;137209;-62
2024/04/14 16:12:52;;;;;;;2.20;1.40;;;;;;;17.91;44.95;99258.19;451307;1236;138627;-61
2024/04/14 16:22:56;;;;;;;3.20;1.10;;;;;;;17.73;44.88;99261.27;450301;1234;139360;-64
2024/04/14 16:33:00;;;;;;;1.80;0.70;;;;;;;17.60;45.27;99259.63;450339;1236;138181;-64
2024/04/14 16:43:04;;;;;;;2.80;0.50;;;;;;;17.31;45.12;99264.78;449483;1234;139159;-64
2024/04/14 16:53:09;;;;;;;4.80;0.70;;;;;;;16.92;45.53;99270.58;449922;1236;139836;-64
2024/04/14 17:03:15;;;;;;;3.20;1.30;;;;;;;16.64;45.61;99270.39;449974;1234;139243;-64
2024/04/14 17:13:19;;;;;;;2.50;0.90;;;;;;;16.31;45.62;99278.64;449803;1234;138935;-60
2024/04/14 17:23:22;;;;;;;4.10;1.80;;;;;;;15.88;45.86;99288.33;450115;1237;138715;-61
2024/04/14 17:33:26;;;;;;;0.90;0.70;;;;;;;15.46;45.84;99298.87;450198;1237;138713;-62
2024/04/14 17:43:30;;;;;;;4.60;0.70;;;;;;;15.06;45.94;99312.26;450566;1234;139476;-61
2024/04/14 17:53:36;;;;;;;1.80;0.80;;;;;;;14.72;45.86;99317.66;450171;1237;138842;-63
2024/04/14 18:03:40;;;;;;;4.80;1.30;;;;;;;14.34;45.95;99329.97;450862;1237;138123;-62
2024/04/14 18:13:45;;;;;;;2.30;1.80;;;;;;;13.97;45.45;99340.08;450759;1237;138799;-61
2024/04/14 18:23:49;;;;;;;1.60;0.60;;;;;;;13.59;45.05;99333.59;452005;1236;138731;-63
2024/04/14 18:33:52;;;;;;;2.20;0.80;;;;;;;13.20;44.84;99344.10;450619;1235;138542;-63
2024/04/14 18:43:56;;;;;;;6.00;0.90;;;;;;;12.85;45.27;99344.33;449310;1236;138446;-62
2024/04/14 18:54:00;;;;;;;2.60;1.00;;;;;;;12.43;45.90;99353.77;450365;1236;138933;-64
2024/04/14 19:04:03;;;;;;;5.50;1.30;;;;;;;11.98;46.72;99357.08;450349;1236;138161;-65
2024/04/14 19:14:07;;;;;;;7.30;2.50;;;;;;;11.51;47.40;99359.93;451042;1233;138594;-62
2024/04/14 19:24:13;;;;;;;6.00;2.30;;;;;;;11.08;48.42;99378.53;450474;1235;138332;-61
2024/04/14 19:34:17;;;;;;;4.00;1.90;;;;;;;10.67;49.05;99379.91;451478;1234;138694;-61
2024/04/14 19:44:21;;;;;;;4.50;2.00;;;;;;;10.32;49.50;99370.30;451991;1234;138715;-61
2024/04/14 19:54:24;;;;;;;4.40;1.80;;;;;;;10.05;49.29;99371.73;449718;1236;138709;-61
2024/04/14 20:04:28;;;;;;;4.00;1.80;;;;;;;9.78;49.28;99363.61;449963;1237;138970;-61
2024/04/14 20:14:32;;;;;;;11.70;2.70;;;;;;;9.51;49.46;99355.36;449735;1236;137956;-62
2024/04/14 20:24:36;;;;;;;4.20;1.60;;;;;;;9.24;50.53;99342.73;450745;1236;138261;-61
2024/04/14 20:34:41;;;;;;;10.60;2.00;;;;;;;8.89;51.80;99345.76;450280;1234;139087;-61
2024/04/14 20:44:44;;;;;;;5.80;1.90;;;;;;;8.52;52.30;99354.17;450520;1233;138863;-65
2024/04/14 20:54:47;;;;;;;2.50;1.50;;;;;;;8.22;53.75;99360.44;450967;1236;138513;-64
2024/04/14 21:04:51;;;;;;;6.30;2.20;;;;;;;7.92;54.81;99364.07;450906;1236;138289;-64
2024/04/14 21:14:55;;;;;;;4.10;2.60;;;;;;;7.63;55.28;99359.94;450460;1234;138259;-65
2024/04/14 21:24:58;;;;;;;3.90;3.20;;;;;;;7.37;56.58;99361.35;449983;1234;138631;-65
2024/04/14 21:35:03;;;;;;;4.30;1.90;;;;;;;7.06;57.32;99359.70;449047;1236;138240;-65
2024/04/14 21:45:07;;;;;;;7.50;2.50;;;;;;;6.78;58.32;99358.86;449805;1235;137740;-61
2024/04/14 21:55:13;;;;;;;5.20;2.60;;;;;;;6.52;59.34;99356.72;450275;1237;138509;-60
2024/04/14 22:05:17;;;;;;;6.20;2.90;;;;;;;6.28;59.58;99342.05;449656;1238;139132;-61
2024/04/14 22:15:21;;;;;;;3.30;2.50;;;;;;;6.12;59.77;99331.23;449653;1236;138434;-59
2024/04/14 22:25:25;;;;;;;7.00;3.70;;;;;;;6.00;60.44;99331.80;449501;1237;137888;-59
2024/04/14 22:35:29;;;;;;;7.00;3.90;;;;;;;5.86;61.01;99337.52;451532;1237;138366;-60
2024/04/14 22:45:32;;;;;;;5.90;2.30;;;;;;;5.77;61.50;99339.66;450639;1237;138844;-63
2024/04/14 22:55:36;;;;;;;10.90;6.30;;;;;;;5.71;62.57;99340.64;450266;1235;138846;-59
2024/04/14 23:05:40;;;;;;;6.50;4.00;;;;;;;5.62;63.32;99340.73;450038;1234;139272;-58
2024/04/14 23:15:43;;;;;;;5.70;3.90;;;;;;;5.47;63.93;99340.88;450124;1237;138587;-58
2024/04/14 23:25:46;;;;;;;8.40;5.30;;;;;;;5.38;64.41;99330.02;449610;1236;139160;-59
2024/04/14 23:35:50;;;;;;;8.60;5.10;;;;;;;5.40;65.15;99333.24;450732;1236;138610;-59
2024/04/14 23:45:53;;;;;;;4.90;3.40;;;;;;;5.40;64.64;99331.14;449811;1236;138772;-68
2024/04/14 23:55:58;;;;;;;6.70;4.00;;;;;;;5.39;64.86;99317.14;449259;1235;139846;-59
